Time;durP1;ratioP1;P1;durP2;ratioP2;P2;SDS_P1;SDS_P2;PMS_P1;PMS_P2;Temp;Humidity;BMP_temperature;BMP_pressure;BME280_temperature;BME280_humidity;BME280_pressure;Samples;Min_cycle;Max_cycle;Signal;HPM_P1;HPM_P2
2023/09/18 00:01:23;;;;;;;31.20;17.88;;;23.60;92.20;;;;;;5032399;28;20052;-66
2023/09/18 00:04:27;;;;;;;32.58;18.88;;;23.60;92.30;;;;;;5032169;28;20053;-66
2023/09/18 00:07:31;;;;;;;37.58;18.50;;;23.60;92.30;;;;;;5032018;28;20037;-66
2023/09/18 00:10:35;;;;;;;31.90;17.70;;;23.60;92.30;;;;;;5032445;28;20044;-66
2023/09/18 00:13:39;;;;;;;33.63;17.10;;;23.50;92.30;;;;;;5032197;28;20406;-66
2023/09/18 00:16:43;;;;;;;28.75;17.77;;;23.60;92.40;;;;;;5031993;28;20048;-67
2023/09/18 00:19:46;;;;;;;34.63;16.88;;;23.90;92.30;;;;;;5031681;28;20044;-66
2023/09/18 00:22:50;;;;;;;33.50;18.98;;;23.50;92.30;;;;;;5031635;28;20623;-66
2023/09/18 00:25:54;;;;;;;33.30;18.35;;;23.50;92.30;;;;;;5031642;28;20112;-66
2023/09/18 00:28:58;;;;;;;34.50;18.60;;;23.50;92.20;;;;;;5031713;28;20048;-66
2023/09/18 00:32:02;;;;;;;40.63;17.98;;;23.50;91.90;;;;;;5030352;28;20497;-66
2023/09/18 00:35:07;;;;;;;32.25;17.65;;;23.40;92.30;;;;;;5030542;28;20056;-66
2023/09/18 00:38:11;;;;;;;36.63;18.88;;;23.30;92.30;;;;;;5031748;28;20052;-66
2023/09/18 00:41:15;;;;;;;34.08;17.85;;;23.30;92.40;;;;;;5031831;28;20044;-66
2023/09/18 00:44:19;;;;;;;36.92;17.95;;;23.20;92.60;;;;;;5031578;28;20052;-66
2023/09/18 00:47:23;;;;;;;33.78;17.98;;;23.20;92.50;;;;;;5031661;28;20040;-66
2023/09/18 00:50:27;;;;;;;29.05;18.17;;;23.20;92.50;;;;;;5030903;28;20524;-66
2023/09/18 00:53:31;;;;;;;35.13;17.25;;;23.10;92.30;;;;;;5031649;28;20040;-65
2023/09/18 00:56:35;;;;;;;29.55;17.33;;;23.10;92.40;;;;;;5031459;28;20160;-66
2023/09/18 00:59:40;;;;;;;32.42;17.23;;;23.00;92.20;;;;;;5031341;28;20496;-68
2023/09/18 01:02:45;;;;;;;29.75;17.10;;;23.00;92.40;;;;;;5031178;28;20040;-67
2023/09/18 01:05:50;;;;;;;33.05;16.65;;;23.00;92.30;;;;;;5030893;28;20109;-67
2023/09/18 01:08:54;;;;;;;41.17;17.40;;;23.10;92.10;;;;;;5030209;28;20040;-67
2023/09/18 01:12:44;;;;;;;37.08;17.60;;;23.10;92.20;;;;;;5030995;28;20508;-67
2023/09/18 01:15:55;;;;;;;41.40;17.55;;;23.10;92.50;;;;;;5032132;28;20048;-67
2023/09/18 01:19:03;;;;;;;34.40;17.35;;;23.20;92.60;;;;;;5030963;28;20666;-67
2023/09/18 01:22:11;;;;;;;35.10;18.02;;;23.20;92.50;;;;;;5031007;28;20524;-67
2023/09/18 01:25:15;;;;;;;33.25;17.60;;;23.20;92.50;;;;;;5031040;28;20393;-66
2023/09/18 01:28:20;;;;;;;31.17;17.27;;;23.20;92.30;;;;;;5030812;28;20088;-67
2023/09/18 01:31:26;;;;;;;32.22;16.73;;;23.20;92.30;;;;;;5053174;28;20400;-66
2023/09/18 01:34:33;;;;;;;37.72;16.13;;;23.10;92.20;;;;;;5029883;28;20680;-67
2023/09/18 01:37:41;;;;;;;26.27;16.38;;;23.10;92.30;;;;;;5030977;28;20087;-68
2023/09/18 01:40:44;;;;;;;33.25;16.90;;;22.90;92.50;;;;;;5030781;28;20049;-68
2023/09/18 01:43:48;;;;;;;37.17;17.92;;;22.90;92.60;;;;;;5033148;28;20516;-66
2023/09/18 01:46:55;;;;;;;26.20;15.23;;;22.80;92.80;;;;;;5033861;28;20048;-66
2023/09/18 01:50:06;;;;;;;28.00;14.82;;;22.70;92.60;;;;;;5034712;28;20060;-66
2023/09/18 01:53:11;;;;;;;26.15;15.63;;;22.60;92.90;;;;;;5035177;28;20044;-68
2023/09/18 01:56:16;;;;;;;28.23;16.25;;;22.50;92.90;;;;;;5034076;28;20044;-67
2023/09/18 01:59:21;;;;;;;29.20;15.32;;;22.60;93.00;;;;;;5034825;28;20049;-67
2023/09/18 02:02:25;;;;;;;31.35;15.63;;;22.60;93.10;;;;;;5033762;28;20044;-66
2023/09/18 02:05:30;;;;;;;29.70;15.82;;;22.50;93.20;;;;;;5033730;28;20048;-66
2023/09/18 02:08:34;;;;;;;41.47;16.20;;;22.50;93.00;;;;;;5034531;28;20049;-66
2023/09/18 02:11:43;;;;;;;33.35;15.88;;;22.40;93.30;;;;;;5034454;28;20048;-67
2023/09/18 02:14:47;;;;;;;32.85;16.50;;;22.40;93.40;;;;;;5033577;28;20056;-66
2023/09/18 02:17:52;;;;;;;31.48;17.48;;;22.40;93.00;;;;;;5034473;28;20048;-66
2023/09/18 02:20:56;;;;;;;26.90;16.75;;;22.40;93.00;;;;;;5034479;28;20121;-66
2023/09/18 02:24:01;;;;;;;34.85;16.50;;;22.40;93.20;;;;;;5034723;28;20053;-66
2023/09/18 02:27:05;;;;;;;31.90;16.13;;;22.30;93.40;;;;;;5034027;28;20386;-67
2023/09/18 02:30:09;;;;;;;31.38;16.83;;;22.20;93.50;;;;;;5034406;28;20109;-67
2023/09/18 02:33:14;;;;;;;36.15;16.35;;;22.20;93.40;;;;;;5033862;28;20044;-67
2023/09/18 02:36:19;;;;;;;25.08;14.52;;;22.20;93.40;;;;;;5034232;28;20385;-67
2023/09/18 02:39:22;;;;;;;26.50;15.85;;;22.30;93.30;;;;;;5033815;28;20049;-67
2023/09/18 02:42:28;;;;;;;29.35;14.65;;;22.20;93.40;;;;;;5033963;28;20044;-67
2023/09/18 02:45:33;;;;;;;28.50;15.60;;;22.30;93.50;;;;;;5033998;28;20057;-67
2023/09/18 02:48:37;;;;;;;31.08;15.13;;;22.20;93.40;;;;;;5033631;28;20044;-67
2023/09/18 02:51:41;;;;;;;26.08;15.20;;;22.20;93.00;;;;;;5033078;28;20045;-67
2023/09/18 02:54:45;;;;;;;28.90;14.23;;;22.10;93.20;;;;;;5033118;28;20045;-67
2023/09/18 02:57:48;;;;;;;33.95;15.00;;;22.10;93.30;;;;;;5033632;28;20064;-67
2023/09/18 03:00:56;;;;;;;28.63;14.98;;;22.10;93.40;;;;;;5033960;28;20060;-67
2023/09/18 03:04:01;;;;;;;38.58;14.93;;;22.10;93.40;;;;;;5032656;28;20179;-67
2023/09/18 03:07:05;;;;;;;28.98;14.43;;;22.00;93.20;;;;;;5032766;28;20063;-67
2023/09/18 03:10:13;;;;;;;26.73;13.90;;;22.00;93.20;;;;;;5032805;28;20394;-69
2023/09/18 03:13:18;;;;;;;26.13;12.88;;;22.10;93.40;;;;;;5032568;28;20512;-67
2023/09/18 03:16:22;;;;;;;33.10;14.48;;;22.10;93.40;;;;;;5032194;28;20411;-67
2023/09/18 03:19:29;;;;;;;32.88;13.65;;;22.00;93.20;;;;;;5032608;28;20048;-67
2023/09/18 03:22:33;;;;;;;25.73;13.07;;;22.00;93.40;;;;;;5055536;28;20180;-67
2023/09/18 03:25:37;;;;;;;25.67;13.20;;;22.00;93.50;;;;;;5055410;28;20064;-67
2023/09/18 03:28:42;;;;;;;25.92;13.55;;;22.00;93.50;;;;;;5032380;28;20037;-67
2023/09/18 03:31:47;;;;;;;40.03;14.40;;;22.00;93.30;;;;;;5043907;28;20040;-67
2023/09/18 03:34:52;;;;;;;30.20;12.60;;;22.00;92.90;;;;;;5032825;28;20056;-66
2023/09/18 03:37:55;;;;;;;28.92;14.15;;;22.00;93.20;;;;;;5032148;28;20040;-66
2023/09/18 03:41:01;;;;;;;42.90;14.57;;;22.00;93.20;;;;;;5055181;28;20045;-67
2023/09/18 03:44:05;;;;;;;107.18;17.02;;;21.80;93.30;;;;;;5032638;28;20056;-66
2023/09/18 03:47:09;;;;;;;54.22;14.00;;;21.70;93.30;;;;;;5032589;28;20493;-67
2023/09/18 03:50:13;;;;;;;43.42;13.68;;;21.70;93.60;;;;;;5032795;28;20041;-67
2023/09/18 03:53:18;;;;;;;30.63;12.77;;;21.60;93.50;;;;;;5032051;28;20048;-67
2023/09/18 03:56:22;;;;;;;32.65;13.30;;;21.70;93.60;;;;;;5032676;28;20480;-66
2023/09/18 03:59:26;;;;;;;29.95;12.48;;;21.70;93.50;;;;;;5031894;28;20041;-67
2023/09/18 04:02:30;;;;;;;34.67;13.57;;;21.80;93.50;;;;;;5054871;28;20049;-66
2023/09/18 04:05:34;;;;;;;28.55;11.88;;;21.90;93.50;;;;;;5032056;28;20053;-68
2023/09/18 04:08:37;;;;;;;28.20;12.60;;;21.90;93.40;;;;;;5031676;28;20040;-65
2023/09/18 04:11:41;;;;;;;22.10;12.48;;;21.90;93.20;;;;;;5031579;28;20381;-67
2023/09/18 04:14:49;;;;;;;31.85;11.85;;;21.90;93.20;;;;;;5032370;28;20044;-68
2023/09/18 04:17:53;;;;;;;25.73;12.60;;;21.90;92.80;;;;;;5032126;28;20040;-68
2023/09/18 04:20:57;;;;;;;29.13;13.70;;;21.90;92.90;;;;;;5031917;28;20056;-67
2023/09/18 04:24:01;;;;;;;36.88;12.65;;;21.90;93.10;;;;;;5031215;28;20500;-67
2023/09/18 04:27:05;;;;;;;38.33;13.40;;;21.80;93.10;;;;;;5031873;28;20040;-67
2023/09/18 04:30:09;;;;;;;33.88;13.40;;;21.70;93.30;;;;;;5054353;28;20520;-67
2023/09/18 04:33:14;;;;;;;41.60;15.25;;;21.60;93.30;;;;;;5031556;28;20048;-67
2023/09/18 04:36:18;;;;;;;23.70;12.13;;;21.60;93.60;;;;;;5031123;28;20053;-67
2023/09/18 04:39:22;;;;;;;36.65;13.20;;;21.60;93.70;;;;;;5031905;28;20045;-67
2023/09/18 04:42:27;;;;;;;30.05;12.50;;;21.50;93.50;;;;;;5030766;28;20499;-66
2023/09/18 04:45:32;;;;;;;30.92;13.30;;;21.40;93.80;;;;;;5030787;28;20068;-66
2023/09/18 04:48:36;;;;;;;33.28;12.80;;;21.50;94.00;;;;;;5030621;28;20060;-66
2023/09/18 04:51:42;;;;;;;33.05;12.85;;;21.50;93.80;;;;;;5030623;28;20045;-66
2023/09/18 04:54:46;;;;;;;38.90;12.38;;;21.60;93.70;;;;;;5030656;28;20326;-66
2023/09/18 04:57:50;;;;;;;36.67;13.13;;;21.80;93.60;;;;;;5030460;28;20040;-65
2023/09/18 05:00:55;;;;;;;38.33;13.38;;;21.80;93.10;;;;;;5031306;28;20497;-66
2023/09/18 05:04:00;;;;;;;37.92;13.43;;;21.80;93.20;;;;;;5030379;28;20076;-66
2023/09/18 05:07:04;;;;;;;28.10;12.43;;;21.70;93.30;;;;;;5030127;28;20524;-65
2023/09/18 05:10:08;;;;;;;32.60;11.93;;;21.60;93.60;;;;;;5030952;28;20109;-65
2023/09/18 05:13:12;;;;;;;30.75;12.13;;;21.70;93.30;;;;;;5030944;28;20357;-67
2023/09/18 05:16:17;;;;;;;33.45;12.55;;;21.70;93.30;;;;;;5030726;28;20037;-67
2023/09/18 05:19:21;;;;;;;40.78;11.82;;;21.80;93.00;;;;;;5031083;28;20527;-67
2023/09/18 05:22:25;;;;;;;25.33;11.13;;;21.80;93.10;;;;;;5030983;28;20095;-61
2023/09/18 05:25:33;;;;;;;23.77;11.95;;;21.80;93.00;;;;;;5030919;28;20048;-63
2023/09/18 05:28:36;;;;;;;25.77;11.80;;;22.00;93.00;;;;;;5030751;28;20052;-62
2023/09/18 05:31:40;;;;;;;36.22;12.98;;;22.30;92.90;;;;;;5030977;28;20044;-63
2023/09/18 05:34:44;;;;;;;27.77;10.95;;;22.60;92.40;;;;;;5030229;28;20068;-63
2023/09/18 05:37:50;;;;;;;38.08;11.75;;;23.00;91.70;;;;;;5030680;28;20045;-62
2023/09/18 05:40:56;;;;;;;31.95;11.38;;;23.50;90.90;;;;;;5030436;28;20064;-63
2023/09/18 05:44:02;;;;;;;31.80;11.05;;;23.80;90.40;;;;;;5030157;28;20171;-63
2023/09/18 05:47:06;;;;;;;36.63;10.68;;;24.20;89.70;;;;;;5030246;28;20065;-63
2023/09/18 05:50:14;;;;;;;36.08;10.27;;;24.50;88.50;;;;;;5030372;28;20071;-62
2023/09/18 05:53:18;;;;;;;35.20;10.60;;;24.90;87.40;;;;;;5030168;28;20040;-62
2023/09/18 05:56:23;;;;;;;45.08;11.60;;;24.90;86.70;;;;;;5030399;28;20044;-62
2023/09/18 05:59:27;;;;;;;31.38;9.77;;;24.90;87.50;;;;;;5030290;28;20072;-62
2023/09/18 06:02:31;;;;;;;33.13;10.15;;;25.40;85.70;;;;;;5030242;28;20044;-62
2023/09/18 06:05:35;;;;;;;35.63;9.98;;;25.50;85.60;;;;;;5030208;28;20520;-62
2023/09/18 06:08:39;;;;;;;37.63;10.95;;;25.50;85.90;;;;;;5030234;28;20048;-62
2023/09/18 06:11:45;;;;;;;35.30;11.18;;;25.70;85.50;;;;;;5030192;28;20065;-62
2023/09/18 06:14:49;;;;;;;35.88;9.60;;;25.70;85.70;;;;;;5030314;28;20072;-61
2023/09/18 06:17:54;;;;;;;29.05;10.02;;;25.60;85.80;;;;;;5030279;28;20072;-63
2023/09/18 06:20:58;;;;;;;29.95;8.57;;;25.30;85.10;;;;;;5030124;28;20152;-63
2023/09/18 06:24:02;;;;;;;32.30;8.90;;;25.30;85.70;;;;;;5029945;28;20634;-62
2023/09/18 06:27:06;;;;;;;28.42;9.05;;;25.60;84.60;;;;;;5030277;28;20048;-62
2023/09/18 06:30:11;;;;;;;39.13;9.38;;;25.60;84.30;;;;;;5031800;28;20041;-62
2023/09/18 06:33:15;;;;;;;40.65;9.75;;;25.50;84.60;;;;;;5032483;28;20041;-64
2023/09/18 06:36:19;;;;;;;31.40;10.75;;;25.40;85.40;;;;;;5032815;28;20044;-63
2023/09/18 06:39:26;;;;;;;39.72;10.35;;;25.40;85.90;;;;;;5033696;28;20040;-64
2023/09/18 06:42:29;;;;;;;38.80;9.63;;;25.50;86.10;;;;;;5033290;28;20072;-64
2023/09/18 06:45:37;;;;;;;27.40;9.30;;;25.50;85.80;;;;;;5033736;28;20056;-63
2023/09/18 06:48:45;;;;;;;40.47;9.90;;;25.70;85.70;;;;;;5033519;28;20040;-63
2023/09/18 06:51:49;;;;;;;19.70;8.20;;;26.00;84.30;;;;;;5033520;28;20045;-63
2023/09/18 06:54:53;;;;;;;36.97;10.13;;;26.20;83.90;;;;;;5033377;28;20633;-62
2023/09/18 06:57:57;;;;;;;38.22;9.65;;;26.40;83.60;;;;;;5033426;28;20409;-64
2023/09/18 07:01:01;;;;;;;44.20;9.32;;;26.70;83.30;;;;;;5033399;28;20041;-63
2023/09/18 07:04:05;;;;;;;39.53;10.00;;;26.80;83.60;;;;;;5033177;28;20052;-64
2023/09/18 07:07:09;;;;;;;39.72;9.60;;;27.00;83.50;;;;;;5033141;28;20045;-64
2023/09/18 07:10:13;;;;;;;34.60;10.43;;;27.20;82.40;;;;;;5033095;28;20064;-63
2023/09/18 07:13:17;;;;;;;39.50;9.18;;;27.40;82.00;;;;;;5032923;28;20405;-64
2023/09/18 07:16:21;;;;;;;37.03;9.80;;;27.50;81.20;;;;;;5033043;28;20489;-65
2023/09/18 07:19:26;;;;;;;44.45;11.00;;;27.70;80.90;;;;;;5033183;28;20053;-63
2023/09/18 07:22:30;;;;;;;34.35;11.88;;;27.80;81.30;;;;;;5033298;28;20064;-64
2023/09/18 07:25:34;;;;;;;32.97;10.70;;;27.70;81.90;;;;;;5032561;28;20060;-64
2023/09/18 07:28:38;;;;;;;41.03;10.88;;;27.80;81.90;;;;;;5031991;28;20052;-67
2023/09/18 07:31:48;;;;;;;28.20;10.02;;;27.70;81.40;;;;;;5032910;28;20500;-67
2023/09/18 07:34:52;;;;;;;24.20;9.95;;;27.80;81.00;;;;;;5032556;28;20056;-67
2023/09/18 07:37:57;;;;;;;28.63;11.02;;;28.00;80.30;;;;;;5032186;28;20056;-67
2023/09/18 07:41:01;;;;;;;39.38;13.63;;;28.30;79.10;;;;;;5032233;28;20044;-67
2023/09/18 07:44:05;;;;;;;24.73;9.80;;;28.50;79.70;;;;;;5031590;28;20410;-67
2023/09/18 07:47:09;;;;;;;34.83;9.88;;;28.60;79.20;;;;;;5032238;28;20045;-67
2023/09/18 07:50:13;;;;;;;22.52;9.68;;;28.70;78.80;;;;;;5032379;28;20374;-67
2023/09/18 07:53:17;;;;;;;22.38;8.93;;;28.90;78.10;;;;;;5031701;28;20056;-64
2023/09/18 07:56:21;;;;;;;25.20;9.07;;;29.10;77.90;;;;;;5032096;28;20532;-66
2023/09/18 07:59:25;;;;;;;23.05;8.90;;;29.30;77.50;;;;;;5032169;28;20080;-66
2023/09/18 08:02:31;;;;;;;19.05;9.63;;;29.50;77.50;;;;;;5032079;28;20048;-67
2023/09/18 08:05:35;;;;;;;19.70;8.82;;;29.60;77.20;;;;;;5031006;28;20401;-67
2023/09/18 08:08:39;;;;;;;21.42;9.13;;;29.80;76.50;;;;;;5031786;28;20041;-66
2023/09/18 08:11:43;;;;;;;18.40;8.45;;;29.80;75.60;;;;;;5032003;28;20068;-67
2023/09/18 08:14:49;;;;;;;22.25;9.40;;;29.90;75.90;;;;;;5031349;28;20064;-67
2023/09/18 08:17:53;;;;;;;43.83;10.65;;;30.00;75.50;;;;;;5031859;28;20048;-66
2023/09/18 08:20:58;;;;;;;24.02;9.65;;;30.00;74.70;;;;;;5030895;28;20060;-65
2023/09/18 08:24:02;;;;;;;22.42;9.25;;;30.10;75.20;;;;;;5031824;28;20052;-65
2023/09/18 08:27:06;;;;;;;19.10;8.65;;;30.20;75.40;;;;;;5030706;28;20060;-65
2023/09/18 08:30:12;;;;;;;24.58;9.10;;;30.20;75.00;;;;;;5031792;28;20045;-67
2023/09/18 08:33:16;;;;;;;15.15;9.13;;;30.30;75.00;;;;;;5030775;28;20062;-68
2023/09/18 08:36:21;;;;;;;23.13;8.40;;;30.30;74.80;;;;;;5031738;28;20488;-67
2023/09/18 08:39:25;;;;;;;17.95;9.05;;;30.40;74.80;;;;;;5031502;28;20049;-66
2023/09/18 08:42:33;;;;;;;28.35;9.00;;;30.40;74.30;;;;;;5031693;28;20044;-67
2023/09/18 08:45:47;;;;;;;18.42;8.45;;;30.50;73.30;;;;;;5031290;28;20049;-66
2023/09/18 08:48:52;;;;;;;27.67;9.32;;;30.40;73.50;;;;;;5031306;28;20041;-72
2023/09/18 08:51:58;;;;;;;18.60;8.05;;;30.30;72.50;;;;;;5030821;28;20046;-71
2023/09/18 08:55:04;;;;;;;16.95;7.43;;;30.20;73.40;;;;;;5031351;28;20048;-67
2023/09/18 08:58:08;;;;;;;24.77;8.48;;;30.20;73.50;;;;;;5031444;28;20052;-67
2023/09/18 09:01:12;;;;;;;22.17;7.78;;;30.30;73.40;;;;;;5031306;28;20500;-67
2023/09/18 09:04:17;;;;;;;19.30;8.25;;;30.40;72.70;;;;;;5031174;28;20258;-66
2023/09/18 09:07:21;;;;;;;19.65;8.13;;;30.50;73.20;;;;;;5031048;28;20044;-66
2023/09/18 09:10:25;;;;;;;21.50;9.07;;;30.50;72.90;;;;;;5029747;28;20060;-66
2023/09/18 09:13:30;;;;;;;22.00;8.70;;;30.60;72.50;;;;;;5030476;28;20600;-66
2023/09/18 09:16:34;;;;;;;18.98;8.90;;;30.60;72.20;;;;;;5031118;28;20048;-66
2023/09/18 09:19:42;;;;;;;19.33;7.68;;;30.60;72.30;;;;;;5030853;28;20049;-66
2023/09/18 09:22:46;;;;;;;25.67;8.98;;;30.70;72.70;;;;;;5031675;28;20049;-66
2023/09/18 09:25:50;;;;;;;21.65;9.75;;;30.80;72.60;;;;;;5030497;28;20064;-66
2023/09/18 09:28:54;;;;;;;21.90;9.45;;;30.90;72.20;;;;;;5030906;28;20394;-65
2023/09/18 09:32:18;;;;;;;27.67;8.65;;;31.00;71.70;;;;;;5029525;28;20052;-66
2023/09/18 09:35:28;;;;;;;25.92;8.95;;;31.00;71.10;;;;;;5030963;28;20448;-66
2023/09/18 09:38:34;;;;;;;22.60;8.65;;;31.00;71.50;;;;;;5041770;28;20064;-65
2023/09/18 09:41:46;;;;;;;17.48;7.10;;;31.00;71.40;;;;;;5030557;28;20052;-67
2023/09/18 09:45:02;;;;;;;16.40;7.25;;;31.10;70.40;;;;;;5030338;28;20053;-66
2023/09/18 09:48:06;;;;;;;26.15;8.23;;;31.10;70.30;;;;;;5030686;28;20060;-66
2023/09/18 09:51:20;;;;;;;17.23;7.30;;;31.20;69.60;;;;;;5030234;28;20041;-66
2023/09/18 09:54:36;;;;;;;21.65;7.85;;;31.30;69.90;;;;;;5030590;28;20443;-66
2023/09/18 09:57:48;;;;;;;20.67;7.35;;;31.40;70.00;;;;;;5029516;28;20077;-66
2023/09/18 10:00:59;;;;;;;21.17;7.30;;;31.40;69.40;;;;;;5030415;28;20037;-66
2023/09/18 10:04:11;;;;;;;21.40;7.70;;;31.50;70.00;;;;;;5032367;28;20053;-66
2023/09/18 10:07:18;;;;;;;28.45;7.65;;;31.60;69.90;;;;;;5034673;28;20410;-66
2023/09/18 10:10:22;;;;;;;27.45;8.60;;;31.70;69.20;;;;;;5034401;28;20040;-66
2023/09/18 10:13:36;;;;;;;38.15;9.07;;;31.80;68.90;;;;;;5034355;28;20053;-66
2023/09/18 10:16:45;;;;;;;15.90;7.35;;;31.80;68.80;;;;;;5034373;28;20390;-66
2023/09/18 10:20:16;;;;;;;22.17;7.20;;;31.80;69.20;;;;;;5033939;28;20060;-66
2023/09/18 10:23:52;;;;;;;25.90;8.05;;;31.80;68.20;;;;;;5034316;28;20044;-67
2023/09/18 10:26:58;;;;;;;24.80;7.85;;;31.90;68.60;;;;;;5033921;28;20056;-67
2023/09/18 10:30:04;;;;;;;22.65;7.30;;;31.90;68.10;;;;;;5033385;28;20044;-67
2023/09/18 10:33:09;;;;;;;25.02;7.88;;;31.90;68.40;;;;;;5033936;28;20045;-67
2023/09/18 10:36:17;;;;;;;19.38;7.43;;;32.00;68.30;;;;;;5033611;28;20056;-66
2023/09/18 10:39:24;;;;;;;20.80;8.00;;;32.10;68.10;;;;;;5033881;28;20492;-67
2023/09/18 10:42:30;;;;;;;21.52;7.07;;;32.10;67.70;;;;;;5033676;28;20053;-66
2023/09/18 10:45:36;;;;;;;21.02;7.28;;;32.10;67.80;;;;;;5033755;28;20194;-66
2023/09/18 10:48:46;;;;;;;16.50;6.60;;;32.10;67.40;;;;;;5033496;28;20040;-66
2023/09/18 10:51:54;;;;;;;20.38;5.45;;;32.10;66.70;;;;;;5033854;28;20049;-66
2023/09/18 10:54:58;;;;;;;18.73;5.88;;;32.10;66.70;;;;;;5033393;28;20049;-66
2023/09/18 10:58:02;;;;;;;15.25;4.85;;;32.10;66.90;;;;;;5033402;28;20051;-66
2023/09/18 11:01:06;;;;;;;20.27;5.35;;;32.10;66.80;;;;;;5033616;28;20044;-66
2023/09/18 11:04:10;;;;;;;22.70;6.03;;;32.10;66.00;;;;;;5033417;28;20500;-66
2023/09/18 11:07:22;;;;;;;22.83;5.47;;;32.10;65.70;;;;;;5033507;28;20048;-66
2023/09/18 11:10:26;;;;;;;20.65;5.95;;;32.10;66.20;;;;;;5033130;28;20040;-66
2023/09/18 11:13:34;;;;;;;23.10;5.72;;;32.10;65.90;;;;;;5032257;28;20056;-66
2023/09/18 11:16:38;;;;;;;19.27;5.60;;;32.10;65.80;;;;;;5032488;28;20409;-66
2023/09/18 11:19:46;;;;;;;12.68;5.65;;;32.10;65.90;;;;;;5032904;28;20056;-66
2023/09/18 11:23:20;;;;;;;16.15;5.93;;;32.00;66.00;;;;;;5033047;28;20409;-67
2023/09/18 11:26:28;;;;;;;16.42;5.78;;;32.00;65.90;;;;;;5033905;28;20514;-67
2023/09/18 11:29:37;;;;;;;19.63;5.43;;;32.00;65.40;;;;;;5032797;28;20500;-66
2023/09/18 11:32:41;;;;;;;20.38;9.02;;;32.00;66.10;;;;;;5032895;28;20699;-67
2023/09/18 11:35:54;;;;;;;20.38;8.85;;;32.00;66.90;;;;;;5032173;28;20065;-67
2023/09/18 11:39:04;;;;;;;25.00;5.00;;;31.90;66.90;;;;;;5032571;28;20044;-67
2023/09/18 11:42:17;;;;;;;28.60;11.25;;;31.90;65.80;;;;;;5032614;28;20044;-67
2023/09/18 11:45:21;;;;;;;58.50;35.05;;;31.90;65.80;;;;;;5032404;28;20057;-67
2023/09/18 11:48:27;;;;;;;35.97;11.07;;;31.90;65.80;;;;;;5032597;28;20539;-67
2023/09/18 11:51:35;;;;;;;54.50;32.20;;;31.90;66.60;;;;;;5031217;28;20056;-67
2023/09/18 11:54:40;;;;;;;49.70;22.13;;;31.80;67.10;;;;;;5032549;28;20044;-67
2023/09/18 11:57:46;;;;;;;60.78;31.63;;;31.80;66.40;;;;;;5031065;28;20049;-67
2023/09/18 12:00:54;;;;;;;35.15;22.02;;;31.80;66.80;;;;;;5031724;28;20048;-67
2023/09/18 12:04:02;;;;;;;45.70;17.80;;;31.80;67.60;;;;;;5032337;28;20413;-67
2023/09/18 12:07:06;;;;;;;32.45;13.32;;;31.70;66.60;;;;;;5032360;28;20056;-67
2023/09/18 12:10:11;;;;;;;54.90;25.83;;;31.70;66.00;;;;;;5032083;28;20044;-66
2023/09/18 12:13:15;;;;;;;68.35;41.85;;;31.60;66.60;;;;;;5032053;28;20040;-66
2023/09/18 12:16:19;;;;;;;51.50;29.55;;;31.60;66.30;;;;;;5031727;28;20040;-66
2023/09/18 12:19:23;;;;;;;41.70;7.35;;;31.60;67.40;;;;;;5032154;28;20045;-67
2023/09/18 12:22:28;;;;;;;24.52;9.27;;;31.70;67.40;;;;;;5031603;28;20053;-67
2023/09/18 12:25:33;;;;;;;31.67;11.25;;;31.70;67.30;;;;;;5031534;28;20524;-67
2023/09/18 12:28:36;;;;;;;28.85;12.70;;;31.60;67.70;;;;;;5031284;28;20072;-66
2023/09/18 12:31:41;;;;;;;36.60;17.63;;;31.60;67.90;;;;;;5031784;28;20496;-66
2023/09/18 12:34:46;;;;;;;29.63;16.90;;;31.60;67.30;;;;;;5031646;28;20064;-66
2023/09/18 12:37:50;;;;;;;30.73;17.10;;;31.60;67.20;;;;;;5031644;28;20052;-66
2023/09/18 12:40:54;;;;;;;45.13;27.55;;;31.60;67.30;;;;;;5031988;28;20400;-65
2023/09/18 12:44:03;;;;;;;51.30;31.42;;;31.60;67.40;;;;;;5031879;28;20511;-67
2023/09/18 12:47:08;;;;;;;24.98;9.85;;;31.60;68.00;;;;;;5031519;28;20116;-67
2023/09/18 12:50:15;;;;;;;31.13;17.25;;;31.60;67.80;;;;;;5031767;28;20040;-66
2023/09/18 12:53:23;;;;;;;30.33;16.98;;;31.50;67.50;;;;;;5031501;28;20044;-65
2023/09/18 12:56:27;;;;;;;28.27;7.93;;;31.50;67.30;;;;;;5031626;28;20041;-67
2023/09/18 12:59:33;;;;;;;19.13;6.22;;;31.50;67.40;;;;;;5030673;28;20366;-67
2023/09/18 13:02:39;;;;;;;26.77;7.38;;;31.50;67.10;;;;;;5031169;28;20072;-67
2023/09/18 13:05:44;;;;;;;32.92;13.40;;;31.40;67.90;;;;;;5030320;28;20061;-66
2023/09/18 13:08:53;;;;;;;60.28;23.08;;;31.40;67.60;;;;;;5031506;28;20116;-66
2023/09/18 13:11:58;;;;;;;41.20;14.82;;;31.60;66.80;;;;;;5030425;28;20048;-65
2023/09/18 13:15:04;;;;;;;36.97;20.85;;;32.60;66.70;;;;;;5031007;28;20512;-67
2023/09/18 13:18:11;;;;;;;38.33;10.65;;;33.50;64.90;;;;;;5031019;28;20040;-67
2023/09/18 13:21:16;;;;;;;38.25;20.52;;;34.30;63.50;;;;;;5031405;28;20044;-67
2023/09/18 13:24:29;;;;;;;56.92;30.67;;;35.20;62.60;;;;;;5030700;28;20048;-66
2023/09/18 13:27:33;;;;;;;50.85;22.65;;;35.60;62.70;;;;;;5030703;28;20048;-66
2023/09/18 13:30:39;;;;;;;58.80;12.82;;;35.50;62.40;;;;;;5031086;28;20393;-67
2023/09/18 13:33:44;;;;;;;37.88;6.38;;;35.70;62.20;;;;;;5030583;28;20409;-66
2023/09/18 13:36:48;;;;;;;42.40;12.65;;;35.30;61.70;;;;;;5030109;28;20052;-66
2023/09/18 13:39:52;;;;;;;60.00;17.38;;;35.20;63.00;;;;;;5029641;28;20036;-67
2023/09/18 13:42:56;;;;;;;40.25;10.30;;;35.30;63.40;;;;;;5030954;28;20052;-67
2023/09/18 13:46:04;;;;;;;45.20;7.45;;;35.20;62.50;;;;;;5030418;28;20057;-67
2023/09/18 13:49:08;;;;;;;27.65;8.35;;;35.10;62.50;;;;;;5030972;28;20048;-68
2023/09/18 13:52:12;;;;;;;25.10;6.70;;;34.80;63.10;;;;;;5030865;28;20650;-67
2023/09/18 13:55:16;;;;;;;34.00;8.13;;;34.20;63.90;;;;;;5030467;28;20124;-66
2023/09/18 13:58:21;;;;;;;26.52;8.65;;;33.70;64.90;;;;;;5030786;28;20509;-67
2023/09/18 14:01:26;;;;;;;26.15;8.95;;;33.30;65.60;;;;;;5030594;28;20049;-67
2023/09/18 14:04:31;;;;;;;26.15;7.63;;;33.00;66.30;;;;;;5030277;28;20040;-67
2023/09/18 14:07:38;;;;;;;22.13;9.15;;;32.80;66.70;;;;;;5030677;28;20044;-67
2023/09/18 14:10:44;;;;;;;31.92;15.10;;;32.60;67.20;;;;;;5041132;28;20057;-67
2023/09/18 14:13:48;;;;;;;31.02;14.52;;;32.50;67.90;;;;;;5030441;28;20052;-65
2023/09/18 14:16:52;;;;;;;31.95;13.00;;;32.30;68.10;;;;;;5029910;28;20056;-68
2023/09/18 14:19:56;;;;;;;26.25;11.73;;;32.30;68.10;;;;;;5030034;28;20048;-67
2023/09/18 14:23:00;;;;;;;27.30;13.77;;;32.10;68.00;;;;;;5030565;28;20059;-67
2023/09/18 14:26:05;;;;;;;26.38;12.27;;;32.00;68.00;;;;;;5029981;28;20093;-67
2023/09/18 14:29:11;;;;;;;21.35;9.43;;;32.00;68.60;;;;;;5030026;28;20504;-67
2023/09/18 14:32:16;;;;;;;24.77;8.07;;;31.90;68.70;;;;;;5029926;28;20508;-66
2023/09/18 14:35:20;;;;;;;22.33;7.82;;;31.90;68.70;;;;;;5029851;28;20052;-67
2023/09/18 14:38:24;;;;;;;17.15;6.95;;;31.70;68.70;;;;;;5030394;28;20524;-68
2023/09/18 14:41:28;;;;;;;13.93;6.30;;;31.70;69.10;;;;;;5030107;28;20116;-66
2023/09/18 14:44:32;;;;;;;22.52;6.82;;;31.60;69.30;;;;;;5029984;28;20052;-66
2023/09/18 14:47:36;;;;;;;9.20;5.30;;;31.60;69.40;;;;;;5030283;28;20052;-68
2023/09/18 14:50:40;;;;;;;17.70;4.90;;;31.60;69.60;;;;;;5031159;28;20041;-67
2023/09/18 14:53:44;;;;;;;21.67;6.03;;;31.50;68.70;;;;;;5033653;28;20056;-68
2023/09/18 14:56:48;;;;;;;22.58;5.40;;;31.40;68.80;;;;;;5033622;28;20236;-67
2023/09/18 14:59:52;;;;;;;13.38;4.45;;;31.40;68.80;;;;;;5033703;28;20397;-68
2023/09/18 15:02:55;;;;;;;11.68;4.57;;;31.30;69.20;;;;;;5033733;28;20041;-66
2023/09/18 15:06:01;;;;;;;20.75;4.97;;;31.20;69.60;;;;;;5033043;28;20056;-67
2023/09/18 15:09:07;;;;;;;27.00;6.20;;;31.10;69.70;;;;;;5033460;28;20389;-67
2023/09/18 15:12:11;;;;;;;18.70;6.47;;;31.10;71.30;;;;;;5033197;28;20052;-68
2023/09/18 15:15:15;;;;;;;20.73;6.00;;;31.00;72.90;;;;;;5032864;28;20052;-67
2023/09/18 15:18:19;;;;;;;36.03;6.97;;;30.90;72.90;;;;;;5033089;28;20052;-67
2023/09/18 15:21:23;;;;;;;25.58;6.28;;;30.80;73.60;;;;;;5033263;28;20389;-67
2023/09/18 15:24:27;;;;;;;20.02;5.80;;;30.80;73.80;;;;;;5032890;28;20037;-67
2023/09/18 15:27:31;;;;;;;19.85;5.20;;;30.70;74.10;;;;;;5033196;28;20056;-67
2023/09/18 15:30:38;;;;;;;34.63;7.47;;;30.70;74.10;;;;;;5032715;28;20045;-67
2023/09/18 15:33:42;;;;;;;29.73;6.38;;;30.60;74.00;;;;;;5032430;28;20409;-67
2023/09/18 15:36:46;;;;;;;26.25;6.15;;;30.50;72.50;;;;;;5032948;28;20044;-66
2023/09/18 15:39:51;;;;;;;27.73;5.90;;;30.50;71.50;;;;;;5032922;28;20044;-66
2023/09/18 15:42:55;;;;;;;16.38;6.07;;;30.50;71.50;;;;;;5032214;28;20041;-67
2023/09/18 15:45:59;;;;;;;14.40;5.78;;;30.40;72.30;;;;;;5031785;28;20056;-67